Time;durP1;ratioP1;P1;durP2;ratioP2;P2;SDS_P1;SDS_P2;PMS_P1;PMS_P2;Temp;Humidity;BMP_temperature;BMP_pressure;BME280_temperature;BME280_humidity;BME280_pressure;Samples;Min_cycle;Max_cycle;Signal;HPM_P1;HPM_P2
2022/05/01 00:00:41;;;;;;;22.48;16.60;;;;;;;7.58;68.10;101306.12;1786198;78;21089;-76
2022/05/01 00:03:07;;;;;;;23.75;16.57;;;;;;;7.54;68.37;101305.75;1798114;78;20947;-77
2022/05/01 00:05:38;;;;;;;23.73;16.30;;;;;;;7.48;68.41;101306.62;1799548;78;21043;-76
2022/05/01 00:08:05;;;;;;;23.00;16.52;;;;;;;7.43;68.38;101314.42;1797639;79;21077;-75
2022/05/01 00:10:32;;;;;;;21.80;16.57;;;;;;;7.21;68.28;101319.31;1798518;78;21011;-75
2022/05/01 00:13:00;;;;;;;22.50;16.62;;;;;;;6.97;68.49;101316.38;1814992;78;21040;-76
2022/05/01 00:15:28;;;;;;;23.62;15.75;;;;;;;6.89;68.72;101319.30;1808134;78;20990;-76
2022/05/01 00:17:57;;;;;;;23.90;16.80;;;;;;;6.87;68.84;101324.52;1813070;78;21185;-77
2022/05/01 00:20:25;;;;;;;22.50;15.78;;;;;;;6.86;68.91;101321.06;1829766;78;21411;-77
2022/05/01 00:22:52;;;;;;;21.90;16.20;;;;;;;6.84;68.98;101319.64;1821346;78;21018;-76
2022/05/01 00:25:19;;;;;;;21.50;15.15;;;;;;;6.57;69.62;101319.26;1831394;78;20963;-76
2022/05/01 00:27:46;;;;;;;22.65;15.35;;;;;;;6.76;69.30;101318.86;1831259;78;21014;-75
2022/05/01 00:30:13;;;;;;;22.98;16.05;;;;;;;6.78;69.08;101318.15;1831508;78;21035;-75
2022/05/01 00:38:11;;;;;;;21.87;14.87;;;;;;;6.58;69.18;101324.05;1821891;78;21471;-76
2022/05/01 00:40:38;;;;;;;21.23;14.15;;;;;;;6.69;68.93;101320.75;1817298;77;20943;-75
2022/05/01 00:43:05;;;;;;;23.15;15.10;;;;;;;6.68;68.87;101321.78;1809518;78;21202;-74
2022/05/01 00:45:33;;;;;;;21.45;15.15;;;;;;;6.65;68.82;101320.88;1830699;78;21066;-73
2022/05/01 00:48:00;;;;;;;23.05;15.93;;;;;;;6.65;68.81;101322.72;1831858;78;21030;-77
2022/05/01 00:50:28;;;;;;;21.35;14.83;;;;;;;6.62;68.78;101322.63;1831576;78;21030;-76
2022/05/01 00:52:55;;;;;;;22.37;15.80;;;;;;;6.57;68.89;101333.05;1828888;78;20998;-76
2022/05/01 00:55:22;;;;;;;24.00;16.17;;;;;;;6.47;69.13;101330.03;1820645;78;21175;-77
2022/05/01 00:57:49;;;;;;;20.32;14.90;;;;;;;6.42;69.41;101329.86;1798338;78;20932;-76
2022/05/01 01:00:18;;;;;;;20.52;15.83;;;;;;;6.44;69.57;101337.09;1817530;78;20992;-75
2022/05/01 01:02:49;;;;;;;;;;;;;;;6.39;69.59;101332.42;1830590;78;21003;-75
2022/05/01 01:05:16;;;;;;;24.05;16.42;;;;;;;6.39;69.72;101332.42;1799929;77;20135;-75
2022/05/01 01:07:43;;;;;;;21.55;15.93;;;;;;;6.41;69.75;101330.87;1814061;78;21108;-75
2022/05/01 01:10:11;;;;;;;24.80;15.83;;;;;;;6.42;69.76;101336.50;1805206;78;21066;-76
2022/05/01 01:12:54;;;;;;;21.90;16.40;;;;;;;6.40;69.71;101335.37;1799819;78;21020;-76
2022/05/01 01:15:24;;;;;;;21.12;15.58;;;;;;;6.28;70.02;101340.50;1802620;78;20944;-77
2022/05/01 01:17:54;;;;;;;21.60;14.87;;;;;;;6.40;70.01;101331.91;1820955;77;21053;-76
2022/05/01 01:20:26;;;;;;;19.70;15.35;;;;;;;6.45;70.12;101337.38;1821472;78;21449;-77
2022/05/01 01:22:56;;;;;;;21.35;14.05;;;;;;;6.40;70.27;101335.37;1819874;77;20995;-76
2022/05/01 01:25:29;;;;;;;21.68;15.53;;;;;;;6.43;70.60;101340.77;1820166;77;21074;-76
2022/05/01 01:28:02;;;;;;;21.35;15.30;;;;;;;6.37;70.83;101338.44;1814405;77;21007;-77
2022/05/01 01:33:21;;;;;;;27.17;17.35;;;;;;;6.37;71.53;101334.97;1791264;78;21213;-77
2022/05/01 01:35:50;;;;;;;22.65;16.30;;;;;;;6.41;71.79;101335.66;1824412;77;20955;-76
2022/05/01 01:38:17;;;;;;;22.37;17.65;;;;;;;6.48;71.90;101336.96;1859478;77;20923;-76
2022/05/01 01:40:51;;;;;;;22.95;16.80;;;;;;;6.53;71.92;101341.14;1810950;78;20916;-76
2022/05/01 01:43:21;;;;;;;20.50;15.28;;;;;;;6.56;71.95;101341.53;1825010;78;20884;-76
2022/05/01 01:45:48;;;;;;;22.65;15.45;;;;;;;6.60;72.02;101343.25;1852950;77;21285;-76
2022/05/01 01:48:20;;;;;;;23.92;16.95;;;;;;;6.64;71.98;101344.45;1858987;77;21000;-77
2022/05/01 01:50:58;;;;;;;;;;;;;;;6.67;72.07;101334.73;1861970;76;21538;-76
2022/05/01 01:53:27;;;;;;;22.60;15.63;;;;;;;6.73;72.22;101337.06;1838015;77;20157;-76
2022/05/01 01:55:57;;;;;;;20.62;15.48;;;;;;;6.77;72.53;101332.44;1813328;79;21003;-76
2022/05/01 01:58:25;;;;;;;19.85;14.33;;;;;;;6.87;72.86;101337.80;1842777;77;21142;-76
2022/05/01 02:00:52;;;;;;;17.98;13.35;;;;;;;6.93;73.23;101332.45;1845487;77;21532;-77
2022/05/01 02:03:19;;;;;;;16.73;12.68;;;;;;;6.99;73.59;101336.10;1831509;78;20990;-76
2022/05/01 02:05:48;;;;;;;17.77;11.83;;;;;;;7.02;73.82;101336.48;1831325;78;20983;-77
2022/05/01 02:08:14;;;;;;;16.80;12.45;;;;;;;7.09;73.98;101338.29;1833024;77;20913;-74
2022/05/01 02:10:41;;;;;;;18.90;12.43;;;;;;;7.14;74.06;101341.10;1828651;78;21176;-75
2022/05/01 02:13:09;;;;;;;18.30;13.75;;;;;;;7.19;74.01;101347.92;1823662;78;20968;-74
2022/05/01 02:15:36;;;;;;;18.00;12.30;;;;;;;7.21;73.83;101344.03;1821980;78;20955;-76
2022/05/01 02:18:04;;;;;;;19.35;13.50;;;;;;;7.23;73.60;101343.28;1821012;78;21550;-76
2022/05/01 02:23:19;;;;;;;18.50;14.03;;;;;;;7.26;73.45;101342.05;1822253;78;21205;-77
2022/05/01 02:25:47;;;;;;;19.60;14.30;;;;;;;7.26;73.44;101342.86;1856898;77;21030;-76
2022/05/01 02:28:15;;;;;;;18.35;13.55;;;;;;;7.26;73.43;101344.19;1824779;78;20983;-76
2022/05/01 02:30:46;;;;;;;17.12;13.45;;;;;;;7.26;73.36;101344.19;1856268;77;20975;-77
2022/05/01 02:33:13;;;;;;;17.55;13.38;;;;;;;7.26;73.27;101345.52;1786824;78;20958;-76
2022/05/01 02:35:40;;;;;;;18.70;12.63;;;;;;;7.25;73.16;101343.89;1821651;78;21633;-77
2022/05/01 02:38:09;;;;;;;17.42;13.30;;;;;;;7.22;72.90;101346.98;1807198;77;20983;-76
2022/05/01 02:40:36;;;;;;;20.10;14.38;;;;;;;7.22;72.89;101346.98;1796336;77;20998;-77
2022/05/01 02:43:05;;;;;;;18.17;13.03;;;;;;;7.22;72.97;101348.31;1820660;78;21562;-76
2022/05/01 02:45:33;;;;;;;16.97;12.75;;;;;;;7.23;73.03;101343.80;1820961;78;21047;-75
2022/05/01 02:48:00;;;;;;;16.82;12.30;;;;;;;7.23;73.04;101352.58;1821099;78;21423;-77
2022/05/01 02:50:27;;;;;;;15.55;12.73;;;;;;;7.22;72.98;101349.64;1816253;78;21018;-76
2022/05/01 02:52:55;;;;;;;18.12;12.68;;;;;;;7.21;73.04;101355.18;1821252;78;21031;-75
2022/05/01 02:55:22;;;;;;;15.70;12.07;;;;;;;7.21;73.17;101356.51;1812923;78;20991;-76
2022/05/01 02:57:49;;;;;;;17.80;13.68;;;;;;;7.21;73.35;101361.30;1821491;77;21575;-77
2022/05/01 03:00:17;;;;;;;17.00;13.62;;;;;;;7.24;73.52;101360.07;1820111;77;21876;-77
2022/05/01 03:02:48;;;;;;;16.35;12.90;;;;;;;7.26;73.67;101361.45;1853853;77;20978;-77
2022/05/01 03:05:16;;;;;;;17.85;12.90;;;;;;;7.30;73.79;101363.16;1854903;77;21003;-77
2022/05/01 03:07:44;;;;;;;14.80;12.20;;;;;;;7.34;73.87;101363.06;1830904;77;21692;-75
2022/05/01 03:10:11;;;;;;;18.57;13.05;;;;;;;7.39;74.00;101363.73;1797926;79;20928;-77
2022/05/01 03:12:38;;;;;;;17.45;12.80;;;;;;;7.44;74.08;101360.73;1815683;79;21466;-77
2022/05/01 03:15:08;;;;;;;14.93;11.20;;;;;;;7.51;74.10;101368.66;1825122;78;21037;-77
2022/05/01 03:23:07;;;;;;;14.60;10.78;;;;;;;7.58;72.92;101369.41;1787821;80;21395;-77
2022/05/01 03:25:35;;;;;;;15.23;10.93;;;;;;;7.56;72.60;101368.80;1797715;78;21019;-76
2022/05/01 03:28:02;;;;;;;14.98;10.68;;;;;;;7.56;72.38;101371.46;1800901;78;21047;-77
2022/05/01 03:30:30;;;;;;;14.68;10.70;;;;;;;7.57;72.28;101373.11;1792946;80;21538;-77
2022/05/01 03:32:57;;;;;;;13.03;10.60;;;;;;;7.60;72.14;101371.84;1792890;80;20995;-76
2022/05/01 03:35:26;;;;;;;14.65;10.88;;;;;;;7.64;72.19;101370.40;1792916;80;21034;-76
2022/05/01 03:37:54;;;;;;;12.23;9.30;;;;;;;7.68;72.29;101369.73;1804241;78;21894;-71
2022/05/01 03:40:21;;;;;;;12.68;9.45;;;;;;;7.75;72.22;101377.13;1813082;77;21558;-75
2022/05/01 03:42:48;;;;;;;16.00;10.68;;;;;;;7.79;72.04;101376.70;1823283;78;20995;-75
2022/05/01 03:45:16;;;;;;;15.35;11.25;;;;;;;7.82;71.96;101373.61;1817507;78;21054;-75
2022/05/01 03:47:43;;;;;;;14.50;10.85;;;;;;;7.86;71.77;101373.45;1837691;78;21002;-77
2022/05/01 03:50:12;;;;;;;13.95;11.25;;;;;;;7.91;71.67;101375.77;1837348;78;21142;-77
2022/05/01 03:52:41;;;;;;;14.28;10.88;;;;;;;7.96;71.50;101369.78;1806448;78;20987;-77
2022/05/01 03:55:09;;;;;;;16.65;11.93;;;;;;;8.00;71.40;101374.98;1819743;78;20975;-77
2022/05/01 03:57:37;;;;;;;15.30;11.83;;;;;;;8.05;71.41;101371.12;1837629;78;21132;-77
2022/05/01 04:00:10;;;;;;;16.27;12.30;;;;;;;8.14;71.42;101376.47;1821243;76;20999;-76
2022/05/01 04:02:42;;;;;;;18.00;12.98;;;;;;;8.23;71.45;101373.82;1810844;79;21177;-77
2022/05/01 04:05:15;;;;;;;17.17;12.88;;;;;;;8.37;71.53;101365.69;1818323;79;20988;-77
2022/05/01 04:07:43;;;;;;;17.25;13.20;;;;;;;8.52;71.61;101375.45;1833043;76;20975;-77
2022/05/01 04:10:10;;;;;;;17.32;13.60;;;;;;;8.64;71.63;101384.33;1825722;78;20972;-77
2022/05/01 04:12:43;;;;;;;17.32;13.40;;;;;;;8.76;71.70;101387.59;1828730;78;20929;-76
2022/05/01 04:15:12;;;;;;;16.67;13.55;;;;;;;8.88;71.69;101380.44;1837765;78;21160;-76
2022/05/01 04:17:41;;;;;;;17.37;13.25;;;;;;;9.02;71.68;101375.77;1837123;78;20992;-77
2022/05/01 04:20:20;;;;;;;15.60;12.63;;;;;;;9.16;71.60;101381.20;1823634;77;21124;-76
2022/05/01 04:22:49;;;;;;;16.73;13.22;;;;;;;9.26;71.59;101379.31;1822944;75;20997;-76
2022/05/01 04:25:23;;;;;;;15.15;11.68;;;;;;;9.40;71.63;101383.39;1855202;77;20983;-76
2022/05/01 04:28:07;;;;;;;16.25;12.63;;;;;;;9.56;71.53;101384.59;1854975;77;21534;-77
2022/05/01 04:30:34;;;;;;;15.65;12.10;;;;;;;9.69;71.49;101390.23;1838584;75;20936;-76
2022/05/01 04:33:08;;;;;;;15.65;12.03;;;;;;;9.86;71.24;101387.97;1855037;77;20987;-77
2022/05/01 04:35:47;;;;;;;15.60;12.65;;;;;;;9.99;71.09;101389.60;1853212;77;21055;-77
2022/05/01 04:38:21;;;;;;;14.45;11.85;;;;;;;10.09;70.82;101395.17;1841614;77;21483;-76
2022/05/01 04:40:53;;;;;;;15.78;12.07;;;;;;;10.25;70.75;101394.18;1819431;78;21085;-77
2022/05/01 04:43:26;;;;;;;14.23;11.55;;;;;;;10.45;70.56;101396.50;1818390;78;21083;-77
2022/05/01 04:45:59;;;;;;;15.20;11.68;;;;;;;10.65;70.21;101390.77;1818967;78;21012;-76
2022/05/01 04:48:27;;;;;;;12.30;10.28;;;;;;;10.86;69.82;101394.13;1814337;78;21039;-74
2022/05/01 04:50:55;;;;;;;12.95;11.03;;;;;;;11.06;69.00;101396.91;1798611;79;21062;-77
2022/05/01 04:53:22;;;;;;;14.07;11.33;;;;;;;11.17;68.26;101388.81;1821578;78;20900;-76
2022/05/01 04:55:51;;;;;;;12.98;10.08;;;;;;;11.35;67.93;101388.30;1831633;78;21489;-77
2022/05/01 04:58:20;;;;;;;12.20;9.85;;;;;;;11.50;67.21;101385.37;1803422;76;21011;-77
2022/05/01 05:00:48;;;;;;;14.38;10.35;;;;;;;11.66;66.71;101383.75;1799292;79;21052;-76
2022/05/01 05:03:17;;;;;;;13.43;10.45;;;;;;;11.85;66.23;101387.02;1799139;79;21078;-77
2022/05/01 05:05:44;;;;;;;12.82;10.15;;;;;;;12.02;65.51;101383.52;1804528;78;21079;-76
2022/05/01 05:10:56;;;;;;;12.35;9.93;;;;;;;12.33;64.23;101386.88;1821483;78;21086;-76
2022/05/01 05:13:27;;;;;;;11.85;8.80;;;;;;;12.48;63.48;101389.48;1817100;78;20995;-75
2022/05/01 05:15:53;;;;;;;11.18;9.18;;;;;;;12.57;62.74;101393.33;1795583;80;21030;-77
2022/05/01 05:18:20;;;;;;;14.10;10.43;;;;;;;12.59;62.32;101389.88;1763446;80;21214;-77
2022/05/01 05:20:47;;;;;;;12.25;9.63;;;;;;;12.64;61.92;101388.62;1815337;78;21026;-75
2022/05/01 05:23:14;;;;;;;12.35;9.13;;;;;;;12.75;61.64;101384.98;1855325;77;21034;-75
2022/05/01 05:25:42;;;;;;;10.50;8.58;;;;;;;12.89;61.01;101381.38;1842283;77;21120;-76
2022/05/01 05:28:11;;;;;;;12.25;8.78;;;;;;;13.01;60.42;101378.55;1791768;80;21620;-76
2022/05/01 05:30:38;;;;;;;10.08;7.67;;;;;;;13.10;59.70;101382.41;1856220;77;21423;-76
2022/05/01 05:33:04;;;;;;;12.00;8.55;;;;;;;13.15;58.83;101375.73;1827970;78;20936;-75
2022/05/01 05:35:33;;;;;;;10.77;8.67;;;;;;;13.18;58.26;101377.91;1820258;78;20939;-74
2022/05/01 05:38:00;;;;;;;10.57;7.77;;;;;;;13.27;58.01;101376.96;1813022;78;21782;-76
2022/05/01 05:40:27;;;;;;;10.00;7.27;;;;;;;13.41;57.14;101380.83;1793115;80;21188;-76
2022/05/01 05:42:55;;;;;;;9.73;7.63;;;;;;;13.52;56.50;101376.34;1793038;80;21298;-76
2022/05/01 05:45:23;;;;;;;9.53;7.27;;;;;;;13.69;56.21;101379.73;1807785;77;21255;-77
2022/05/01 05:47:51;;;;;;;11.67;9.00;;;;;;;13.87;55.50;101381.72;1821332;77;21687;-76
2022/05/01 05:50:18;;;;;;;11.43;9.10;;;;;;;13.94;55.16;101379.61;1848735;77;21341;-80
2022/05/01 05:52:45;;;;;;;12.50;8.23;;;;;;;14.06;55.23;101373.52;1821966;77;21255;-80
2022/05/01 05:55:15;;;;;;;7.70;5.60;;;;;;;14.22;54.78;101377.09;1826579;77;21256;-79
2022/05/01 05:57:44;;;;;;;7.93;5.37;;;;;;;14.39;53.13;101376.36;1808921;78;21236;-78
2022/05/01 06:00:14;;;;;;;8.53;4.73;;;;;;;14.37;51.94;101376.34;1815916;78;21186;-80
2022/05/01 06:02:42;;;;;;;6.85;4.45;;;;;;;14.47;50.16;101373.70;1813262;76;21348;-79
2022/05/01 06:05:09;;;;;;;7.73;4.30;;;;;;;14.59;48.46;101374.32;1799764;78;21070;-80
2022/05/01 06:07:37;;;;;;;6.50;4.20;;;;;;;14.64;48.02;101373.01;1824979;76;21540;-80
2022/05/01 06:10:06;;;;;;;5.30;3.70;;;;;;;14.70;46.93;101373.27;1831570;76;21330;-79
2022/05/01 06:12:41;;;;;;;4.97;3.43;;;;;;;14.75;46.05;101363.89;1825641;78;21259;-78
2022/05/01 06:15:10;;;;;;;5.07;3.30;;;;;;;14.83;45.65;101368.47;1793734;78;21314;-78
2022/05/01 06:17:38;;;;;;;5.27;2.93;;;;;;;14.89;45.02;101371.45;1800732;78;21255;-78
2022/05/01 06:20:07;;;;;;;5.90;3.07;;;;;;;14.94;44.55;101370.93;1832089;78;21230;-78
2022/05/01 06:22:37;;;;;;;5.57;3.17;;;;;;;15.02;44.50;101369.59;1840546;76;21137;-77
2022/05/01 06:25:05;;;;;;;6.67;3.10;;;;;;;15.13;43.34;101369.86;1832469;78;21182;-77
2022/05/01 06:27:32;;;;;;;5.83;2.83;;;;;;;15.21;42.84;101369.34;1802773;78;21160;-78
2022/05/01 06:30:00;;;;;;;3.20;2.10;;;;;;;15.33;42.79;101364.23;1811224;76;21130;-79
2022/05/01 06:32:27;;;;;;;4.40;2.90;;;;;;;15.44;42.25;101354.55;1826942;78;21285;-75
2022/05/01 06:34:54;;;;;;;4.13;2.43;;;;;;;15.53;41.79;101356.17;1822836;76;21671;-76
2022/05/01 06:37:21;;;;;;;3.90;2.40;;;;;;;15.64;41.19;101353.73;1819122;76;21189;-77
2022/05/01 06:39:48;;;;;;;6.90;2.87;;;;;;;15.72;40.91;101359.13;1814063;78;21243;-78
2022/05/01 06:42:15;;;;;;;4.10;2.60;;;;;;;15.79;40.43;101355.61;1811730;78;21287;-78
2022/05/01 06:44:42;;;;;;;4.77;2.73;;;;;;;15.87;40.42;101354.27;1852854;77;21320;-76
2022/05/01 06:47:12;;;;;;;5.77;2.50;;;;;;;16.04;40.07;101352.06;1827618;78;21333;-78
2022/05/01 06:49:41;;;;;;;5.15;2.55;;;;;;;16.07;40.16;101352.86;1831176;78;21292;-78
2022/05/01 06:52:10;;;;;;;5.37;2.47;;;;;;;16.18;40.18;101350.93;1837296;78;20999;-78
2022/05/01 06:54:39;;;;;;;4.10;2.33;;;;;;;16.27;38.95;101346.59;1824135;76;21855;-79
2022/05/01 06:57:06;;;;;;;4.70;2.37;;;;;;;16.36;38.48;101353.58;1810120;78;21421;-79
2022/05/01 06:59:34;;;;;;;4.87;2.37;;;;;;;16.37;37.79;101352.48;1813410;78;21807;-79
2022/05/01 07:02:01;;;;;;;4.40;2.30;;;;;;;16.38;37.72;101354.09;1831611;77;21301;-77
2022/05/01 07:04:29;;;;;;;3.83;2.27;;;;;;;16.38;37.72;101354.09;1824814;78;21468;-79
2022/05/01 07:06:56;;;;;;;4.27;2.30;;;;;;;16.40;36.05;101353.28;1830637;77;22253;-80
2022/05/01 07:09:24;;;;;;;3.80;2.47;;;;;;;16.40;36.05;101353.28;1831482;78;21627;-77
2022/05/01 07:11:51;;;;;;;3.93;2.13;;;;;;;16.26;34.64;101353.08;1840625;78;21472;-79
2022/05/01 07:14:18;;;;;;;4.27;2.37;;;;;;;16.44;34.82;101356.23;1810577;78;21684;-79
2022/05/01 07:16:47;;;;;;;3.43;2.03;;;;;;;16.44;34.82;101356.23;1808393;78;21886;-78
2022/05/01 07:19:14;;;;;;;3.37;1.90;;;;;;;16.54;35.06;101349.44;1811060;78;21439;-76
2022/05/01 07:21:41;;;;;;;3.20;1.80;;;;;;;16.69;35.20;101346.67;1831581;77;21315;-77
2022/05/01 07:24:10;;;;;;;3.30;1.83;;;;;;;16.83;34.35;101340.94;1823223;78;21407;-78
2022/05/01 07:26:37;;;;;;;3.80;1.83;;;;;;;16.99;34.26;101347.59;1819066;78;21733;-78
2022/05/01 07:29:04;;;;;;;3.90;1.97;;;;;;;17.10;33.99;101344.53;1842804;76;21531;-77
2022/05/01 07:31:35;;;;;;;3.17;1.90;;;;;;;17.06;34.03;101347.53;1808873;78;21650;-77
2022/05/01 07:34:02;;;;;;;3.70;2.03;;;;;;;17.06;33.69;101348.88;1829340;78;21660;-78
2022/05/01 07:36:29;;;;;;;4.50;2.33;;;;;;;17.07;33.48;101345.09;1820408;78;21686;-78
2022/05/01 07:38:57;;;;;;;4.13;1.83;;;;;;;17.10;32.81;101348.58;1831909;78;22233;-79
2022/05/01 07:41:27;;;;;;;2.93;1.60;;;;;;;17.14;32.19;101345.31;1805352;78;21630;-78
2022/05/01 07:43:55;;;;;;;3.30;1.77;;;;;;;17.17;32.44;101338.80;1811423;78;21758;-77
2022/05/01 07:46:23;;;;;;;3.67;1.60;;;;;;;17.24;31.87;101333.08;1823074;78;21240;-78
2022/05/01 07:48:50;;;;;;;3.90;1.90;;;;;;;17.31;31.59;101327.64;1806737;78;21630;-77
2022/05/01 07:51:21;;;;;;;5.10;1.90;;;;;;;17.36;31.23;101328.13;1833325;78;21506;-77
2022/05/01 07:53:53;;;;;;;3.73;1.50;;;;;;;17.41;31.44;101324.05;1834678;78;21686;-78
2022/05/01 07:56:21;;;;;;;4.00;1.53;;;;;;;17.40;30.13;101320.27;1834195;78;21659;-78
2022/05/01 07:58:50;;;;;;;2.97;1.53;;;;;;;17.21;29.65;101323.68;1789563;79;21330;-78
2022/05/01 08:01:18;;;;;;;2.93;1.40;;;;;;;17.05;29.84;101328.39;1831390;76;21603;-74
2022/05/01 08:06:35;;;;;;;3.53;1.70;;;;;;;16.86;30.15;101330.14;1812394;78;22115;-76
2022/05/01 08:09:03;;;;;;;3.53;1.57;;;;;;;16.77;30.80;101329.91;1799199;79;22120;-75
2022/05/01 08:11:30;;;;;;;3.50;1.70;;;;;;;16.67;31.97;101329.14;1800344;79;21776;-77
2022/05/01 08:13:57;;;;;;;4.40;1.80;;;;;;;16.56;31.86;101329.20;1809296;78;21882;-76
2022/05/01 08:16:26;;;;;;;3.03;1.50;;;;;;;16.55;32.25;101332.16;1832605;78;21706;-81
2022/05/01 08:21:42;;;;;;;4.03;1.60;;;;;;;16.91;30.50;101316.59;1816568;78;21684;-76
2022/05/01 08:24:09;;;;;;;3.17;1.40;;;;;;;17.11;31.33;101321.87;1859410;77;21730;-76
2022/05/01 08:26:39;;;;;;;4.60;1.90;;;;;;;17.41;30.96;101318.64;1817768;78;21598;-76
2022/05/01 08:29:06;;;;;;;2.47;1.50;;;;;;;17.62;30.83;101318.45;1821520;77;21730;-75
2022/05/01 08:31:35;;;;;;;4.13;1.83;;;;;;;17.79;30.19;101312.08;1811091;78;22239;-75
2022/05/01 08:34:03;;;;;;;3.70;1.57;;;;;;;18.05;30.57;101305.28;1820902;78;21624;-76
2022/05/01 08:36:31;;;;;;;4.30;1.67;;;;;;;18.36;28.92;101314.39;1824874;78;21555;-74
2022/05/01 08:39:00;;;;;;;3.07;1.57;;;;;;;18.56;28.86;101304.36;1813243;79;20964;-76
2022/05/01 08:41:29;;;;;;;2.60;1.40;;;;;;;18.70;29.54;101295.78;1831991;78;21023;-77
2022/05/01 08:43:57;;;;;;;2.40;1.43;;;;;;;18.82;28.47;101294.83;1805082;78;21002;-75
2022/05/01 08:46:48;;;;;;;2.77;1.53;;;;;;;18.97;28.27;101295.92;1823143;77;20884;-74
2022/05/01 08:49:17;;;;;;;1.80;1.17;;;;;;;19.16;28.32;101291.83;1813435;79;21298;-76
2022/05/01 08:51:44;;;;;;;2.90;1.50;;;;;;;19.32;27.83;101288.87;1760490;79;21097;-76
2022/05/01 08:54:13;;;;;;;3.53;1.40;;;;;;;19.23;27.70;101281.16;1835458;78;21070;-76
2022/05/01 08:56:43;;;;;;;2.47;1.53;;;;;;;19.11;27.09;101282.98;1835356;78;20955;-76
2022/05/01 08:59:14;;;;;;;3.03;1.80;;;;;;;18.99;27.13;101290.23;1836426;78;21030;-76
2022/05/01 09:01:43;;;;;;;;;;;;;;;18.86;26.92;101288.27;1838128;78;21164;-76
2022/05/01 09:04:12;;;;;;;2.40;1.37;;;;;;;18.63;27.86;101283.97;1831631;78;20383;-77
2022/05/01 09:06:41;;;;;;;3.70;1.50;;;;;;;18.48;27.61;101291.75;1832959;78;21491;-77
2022/05/01 09:09:22;;;;;;;;;;;;;;;18.37;26.89;101287.59;1834137;78;21002;-77
2022/05/01 09:14:40;;;;;;;3.87;1.73;;;;;;;18.34;27.82;101281.41;1814914;79;22319;-77
2022/05/01 09:17:19;;;;;;;4.57;1.67;;;;;;;18.46;27.92;101280.98;1815067;78;20998;-76
2022/05/01 09:19:50;;;;;;;3.30;2.13;;;;;;;18.43;27.13;101279.66;1833269;76;20990;-76
2022/05/01 09:22:19;;;;;;;3.10;1.60;;;;;;;18.40;27.75;101280.80;1832297;76;21019;-77
2022/05/01 09:24:52;;;;;;;4.50;1.67;;;;;;;18.45;27.20;101273.39;1828720;78;21053;-77
2022/05/01 09:27:32;;;;;;;4.90;1.73;;;;;;;18.63;27.73;101271.00;1798810;79;21801;-77
2022/05/01 09:30:15;;;;;;;4.43;1.80;;;;;;;18.83;27.43;101270.71;1820788;77;20947;-74
2022/05/01 09:32:46;;;;;;;3.43;1.67;;;;;;;19.18;26.96;101265.79;1846701;75;20998;-75
2022/05/01 09:35:31;;;;;;;3.13;1.60;;;;;;;19.44;26.36;101261.52;1822828;78;20975;-77
2022/05/01 09:38:22;;;;;;;3.42;1.70;;;;;;;19.61;25.78;101265.55;1855387;77;21470;-77
2022/05/01 09:40:55;;;;;;;4.73;2.10;;;;;;;19.68;26.40;101257.88;1855176;77;21205;-76
2022/05/01 09:43:38;;;;;;;3.90;2.10;;;;;;;19.90;25.22;101253.88;1845319;77;21034;-77
2022/05/01 09:46:21;;;;;;;3.43;1.70;;;;;;;19.99;24.71;101259.97;1846399;77;21081;-78
2022/05/01 09:49:06;;;;;;;3.30;1.90;;;;;;;19.88;24.34;101253.40;1825652;78;20915;-77
2022/05/01 09:51:56;;;;;;;4.87;2.10;;;;;;;19.62;25.29;101250.36;1824145;78;21423;-77
2022/05/01 09:54:27;;;;;;;2.83;2.00;;;;;;;19.49;25.12;101254.42;1859455;77;21032;-76
2022/05/01 09:56:58;;;;;;;10.90;7.10;;;;;;;19.42;25.48;101255.62;1834440;77;20999;-76
2022/05/01 09:59:28;;;;;;;4.97;2.93;;;;;;;19.39;24.81;101257.56;1825212;78;21034;-77
2022/05/01 10:02:04;;;;;;;3.52;2.05;;;;;;;19.14;25.51;101260.72;1804809;79;21046;-77
2022/05/01 10:04:36;;;;;;;5.20;2.97;;;;;;;19.06;25.74;101257.36;1804810;79;21410;-77
2022/05/01 10:07:04;;;;;;;4.58;2.05;;;;;;;19.11;25.44;101255.90;1826807;78;21110;-76
2022/05/01 10:09:34;;;;;;;3.37;1.83;;;;;;;19.11;25.48;101249.12;1837861;78;20947;-75
2022/05/01 10:12:05;;;;;;;3.20;2.00;;;;;;;19.11;25.59;101249.12;1838058;78;20995;-75
2022/05/01 10:14:33;;;;;;;4.40;2.10;;;;;;;19.18;25.63;101244.13;1837596;78;20955;-75
2022/05/01 10:17:01;;;;;;;4.30;2.23;;;;;;;19.31;25.52;101240.64;1804102;78;21481;-78
2022/05/01 10:19:29;;;;;;;4.73;2.30;;;;;;;19.51;25.56;101240.80;1837662;78;21054;-75
2022/05/01 10:21:59;;;;;;;3.97;2.40;;;;;;;19.69;25.30;101244.57;1837344;78;20983;-77
2022/05/01 10:24:26;;;;;;;3.90;2.40;;;;;;;19.83;24.93;101235.07;1837817;78;20982;-77
2022/05/01 10:27:10;;;;;;;5.30;2.47;;;;;;;19.86;24.32;101237.98;1837702;78;20964;-77
2022/05/01 10:32:50;;;;;;;3.37;2.10;;;;;;;19.84;25.06;101231.25;1836589;78;21110;-77
2022/05/01 10:35:42;;;;;;;5.17;2.33;;;;;;;19.99;24.64;101228.78;1775634;78;20980;-76
2022/05/01 10:38:27;;;;;;;3.53;2.10;;;;;;;19.97;24.48;101226.36;1831634;78;22128;-76
2022/05/01 10:40:56;;;;;;;4.63;2.20;;;;;;;20.03;24.51;101218.37;1807994;78;20995;-78
2022/05/01 10:43:32;;;;;;;3.50;2.10;;;;;;;20.05;24.20;101218.08;1837816;78;20938;-75
2022/05/01 10:46:05;;;;;;;4.40;2.07;;;;;;;19.99;24.67;101216.58;1837725;78;20955;-76
2022/05/01 10:48:38;;;;;;;3.95;2.40;;;;;;;19.94;24.82;101224.81;1813447;78;21000;-78
2022/05/01 10:51:36;;;;;;;4.43;2.30;;;;;;;19.94;24.49;101215.32;1815642;78;20975;-76
2022/05/01 10:54:16;;;;;;;4.97;2.00;;;;;;;19.97;24.22;101217.42;1804634;79;21058;-77
2022/05/01 10:56:53;;;;;;;3.83;1.90;;;;;;;19.96;24.21;101214.47;1804821;79;21062;-77
2022/05/01 10:59:38;;;;;;;3.03;1.80;;;;;;;19.95;24.56;101219.09;1750811;79;22197;-74
2022/05/01 11:02:07;;;;;;;4.63;2.27;;;;;;;19.91;25.26;101213.48;1807248;79;20991;-75
2022/05/01 11:04:41;;;;;;;5.27;2.20;;;;;;;19.86;24.85;101211.42;1774156;79;21708;-77
2022/05/01 11:07:16;;;;;;;3.83;2.07;;;;;;;19.78;24.96;101210.24;1805635;78;20987;-75
2022/05/01 11:09:45;;;;;;;3.43;2.10;;;;;;;19.72;25.40;101203.31;1822314;76;20937;-76
2022/05/01 11:12:14;;;;;;;2.93;2.10;;;;;;;19.73;25.38;101202.20;1804756;78;21218;-77
2022/05/01 11:14:54;;;;;;;5.13;2.43;;;;;;;19.77;24.80;101200.48;1784932;78;20952;-77
2022/05/01 11:17:40;;;;;;;4.40;2.37;;;;;;;19.94;24.30;101205.83;1824006;78;20946;-77
2022/05/01 11:20:24;;;;;;;5.20;2.30;;;;;;;20.02;24.31;101192.92;1854205;75;20979;-77
2022/05/01 11:22:53;;;;;;;5.27;2.70;;;;;;;20.09;24.15;101185.17;1821749;78;20991;-76
2022/05/01 11:25:42;;;;;;;5.73;2.73;;;;;;;20.09;24.09;101192.75;1807839;77;21313;-77
2022/05/01 11:28:09;;;;;;;5.80;2.30;;;;;;;20.05;23.88;101188.25;1821679;78;21027;-77
2022/05/01 11:30:37;;;;;;;5.90;2.67;;;;;;;20.11;24.14;101190.55;1819710;77;21019;-75
2022/05/01 11:33:10;;;;;;;4.60;2.73;;;;;;;20.21;23.56;101181.38;1821811;78;20990;-76
2022/05/01 11:36:01;;;;;;;4.83;2.77;;;;;;;20.28;24.38;101182.31;1820250;78;21026;-76
2022/05/01 11:38:46;;;;;;;4.87;2.12;;;;;;;20.30;23.14;101180.89;1824680;77;21079;-75
2022/05/01 11:41:13;;;;;;;5.03;2.20;;;;;;;20.26;23.90;101175.81;1847508;77;20924;-77
2022/05/01 11:43:40;;;;;;;3.50;2.10;;;;;;;20.47;23.96;101180.78;1855795;77;20991;-77
2022/05/01 11:46:17;;;;;;;5.00;2.40;;;;;;;20.71;23.41;101173.70;1855426;77;21018;-77
2022/05/01 11:48:44;;;;;;;5.40;2.50;;;;;;;20.84;22.44;101175.53;1855117;77;20995;-76
2022/05/01 11:51:12;;;;;;;3.13;2.00;;;;;;;20.74;21.45;101171.16;1822778;77;21964;-77
2022/05/01 11:53:39;;;;;;;3.20;2.00;;;;;;;20.69;21.59;101166.41;1855320;77;21035;-75
2022/05/01 12:04:38;;;;;;;5.53;2.20;;;;;;;20.85;22.34;101167.06;1855069;77;21139;-75
2022/05/01 12:07:17;;;;;;;4.67;2.17;;;;;;;20.93;21.78;101159.30;1855296;77;21400;-76
2022/05/01 12:09:48;;;;;;;3.93;2.20;;;;;;;20.73;21.40;101155.17;1855079;77;20991;-78
2022/05/01 12:12:18;;;;;;;3.97;2.00;;;;;;;20.49;22.46;101158.98;1855108;77;21027;-78
2022/05/01 12:14:50;;;;;;;3.87;2.37;;;;;;;20.39;22.21;101164.66;1854010;77;21072;-76